sensor_id;sensor_type;location;lat;lon;timestamp;P1;durP1;ratioP1;P2;durP2;ratioP2
31308;SDS011;17936;52.446;10.840;2023-06-26T00:01:49;6.53;;;4.63;;
31308;SDS011;17936;52.446;10.840;2023-06-26T00:04:15;7.65;;;4.47;;
31308;SDS011;17936;52.446;10.840;2023-06-26T00:06:41;10.80;;;4.63;;
31308;SDS011;17936;52.446;10.840;2023-06-26T00:09:06;6.53;;;4.80;;
31308;SDS011;17936;52.446;10.840;2023-06-26T00:11:32;5.68;;;4.40;;
31308;SDS011;17936;52.446;10.840;2023-06-26T00:13:59;11.55;;;4.93;;
31308;SDS011;17936;52.446;10.840;2023-06-26T00:16:25;6.35;;;4.75;;
31308;SDS011;17936;52.446;10.840;2023-06-26T00:18:52;6.55;;;4.80;;
31308;SDS011;17936;52.446;10.840;2023-06-26T00:21:17;6.20;;;4.15;;
31308;SDS011;17936;52.446;10.840;2023-06-26T00:23:44;12.88;;;4.80;;
31308;SDS011;17936;52.446;10.840;2023-06-26T00:26:09;6.72;;;4.60;;
31308;SDS011;17936;52.446;10.840;2023-06-26T00:28:35;9.48;;;4.72;;
31308;SDS011;17936;52.446;10.840;2023-06-26T00:31:01;6.70;;;4.68;;
31308;SDS011;17936;52.446;10.840;2023-06-26T00:33:26;7.10;;;4.22;;
31308;SDS011;17936;52.446;10.840;2023-06-26T00:35:52;5.78;;;4.38;;
31308;SDS011;17936;52.446;10.840;2023-06-26T00:38:17;8.45;;;4.90;;
31308;SDS011;17936;52.446;10.840;2023-06-26T00:40:43;8.30;;;4.82;;
31308;SDS011;17936;52.446;10.840;2023-06-26T00:43:08;7.85;;;4.50;;
31308;SDS011;17936;52.446;10.840;2023-06-26T00:45:34;6.00;;;4.45;;
31308;SDS011;17936;52.446;10.840;2023-06-26T00:48:00;8.95;;;4.38;;
31308;SDS011;17936;52.446;10.840;2023-06-26T00:50:26;5.65;;;4.40;;
31308;SDS011;17936;52.446;10.840;2023-06-26T00:52:52;8.32;;;5.18;;
31308;SDS011;17936;52.446;10.840;2023-06-26T00:55:21;9.65;;;5.03;;
31308;SDS011;17936;52.446;10.840;2023-06-26T00:57:47;7.00;;;5.05;;
31308;SDS011;17936;52.446;10.840;2023-06-26T01:00:13;6.85;;;4.85;;
31308;SDS011;17936;52.446;10.840;2023-06-26T01:02:39;9.15;;;5.10;;
31308;SDS011;17936;52.446;10.840;2023-06-26T01:05:05;6.15;;;4.57;;
31308;SDS011;17936;52.446;10.840;2023-06-26T01:07:34;8.13;;;4.82;;
31308;SDS011;17936;52.446;10.840;2023-06-26T01:10:05;9.57;;;5.40;;
31308;SDS011;17936;52.446;10.840;2023-06-26T01:12:32;7.45;;;4.93;;
31308;SDS011;17936;52.446;10.840;2023-06-26T01:14:58;10.38;;;4.65;;
31308;SDS011;17936;52.446;10.840;2023-06-26T01:17:25;6.82;;;5.07;;
31308;SDS011;17936;52.446;10.840;2023-06-26T01:19:58;7.25;;;5.03;;
31308;SDS011;17936;52.446;10.840;2023-06-26T01:22:27;7.97;;;4.82;;
31308;SDS011;17936;52.446;10.840;2023-06-26T01:25:10;8.18;;;5.22;;
31308;SDS011;17936;52.446;10.840;2023-06-26T01:27:38;6.15;;;4.68;;
31308;SDS011;17936;52.446;10.840;2023-06-26T01:30:04;6.63;;;4.88;;
31308;SDS011;17936;52.446;10.840;2023-06-26T01:32:31;7.43;;;5.05;;
31308;SDS011;17936;52.446;10.840;2023-06-26T01:34:58;7.78;;;4.72;;
31308;SDS011;17936;52.446;10.840;2023-06-26T01:37:24;6.47;;;5.03;;
31308;SDS011;17936;52.446;10.840;2023-06-26T01:39:50;6.38;;;4.80;;
31308;SDS011;17936;52.446;10.840;2023-06-26T01:42:15;5.88;;;4.35;;
31308;SDS011;17936;52.446;10.840;2023-06-26T01:44:44;9.18;;;5.60;;
31308;SDS011;17936;52.446;10.840;2023-06-26T01:47:12;7.28;;;5.10;;
31308;SDS011;17936;52.446;10.840;2023-06-26T01:49:54;7.97;;;5.53;;
31308;SDS011;17936;52.446;10.840;2023-06-26T01:52:40;6.35;;;4.93;;
31308;SDS011;17936;52.446;10.840;2023-06-26T01:55:11;8.32;;;5.05;;
31308;SDS011;17936;52.446;10.840;2023-06-26T01:57:41;7.07;;;5.22;;
31308;SDS011;17936;52.446;10.840;2023-06-26T02:00:09;6.82;;;4.93;;
31308;SDS011;17936;52.446;10.840;2023-06-26T02:02:36;6.95;;;5.20;;
31308;SDS011;17936;52.446;10.840;2023-06-26T02:05:01;6.78;;;5.30;;
31308;SDS011;17936;52.446;10.840;2023-06-26T02:07:27;10.23;;;5.45;;
31308;SDS011;17936;52.446;10.840;2023-06-26T02:09:53;7.25;;;5.20;;
31308;SDS011;17936;52.446;10.840;2023-06-26T02:12:18;8.45;;;5.18;;
31308;SDS011;17936;52.446;10.840;2023-06-26T02:14:44;11.13;;;5.88;;
31308;SDS011;17936;52.446;10.840;2023-06-26T02:17:09;9.20;;;5.72;;
31308;SDS011;17936;52.446;10.840;2023-06-26T02:19:35;8.95;;;5.63;;
31308;SDS011;17936;52.446;10.840;2023-06-26T02:22:01;7.05;;;5.07;;
31308;SDS011;17936;52.446;10.840;2023-06-26T02:24:26;9.07;;;5.53;;
31308;SDS011;17936;52.446;10.840;2023-06-26T02:26:55;9.35;;;5.50;;
31308;SDS011;17936;52.446;10.840;2023-06-26T02:29:21;7.75;;;5.07;;
31308;SDS011;17936;52.446;10.840;2023-06-26T02:31:47;7.53;;;4.82;;
31308;SDS011;17936;52.446;10.840;2023-06-26T02:34:12;7.05;;;5.20;;
31308;SDS011;17936;52.446;10.840;2023-06-26T02:36:38;9.00;;;5.13;;
31308;SDS011;17936;52.446;10.840;2023-06-26T02:39:04;8.73;;;5.25;;
31308;SDS011;17936;52.446;10.840;2023-06-26T02:41:30;8.27;;;5.65;;
31308;SDS011;17936;52.446;10.840;2023-06-26T02:43:55;7.60;;;5.47;;
31308;SDS011;17936;52.446;10.840;2023-06-26T02:46:21;11.18;;;6.10;;
31308;SDS011;17936;52.446;10.840;2023-06-26T02:48:46;10.43;;;5.60;;
31308;SDS011;17936;52.446;10.840;2023-06-26T02:51:11;8.52;;;5.65;;
31308;SDS011;17936;52.446;10.840;2023-06-26T02:53:37;9.38;;;4.97;;
31308;SDS011;17936;52.446;10.840;2023-06-26T02:56:02;10.88;;;5.95;;
31308;SDS011;17936;52.446;10.840;2023-06-26T02:58:28;11.75;;;5.63;;
31308;SDS011;17936;52.446;10.840;2023-06-26T03:00:54;8.27;;;5.60;;
31308;SDS011;17936;52.446;10.840;2023-06-26T03:03:21;8.40;;;5.72;;
31308;SDS011;17936;52.446;10.840;2023-06-26T03:05:46;8.82;;;5.57;;
31308;SDS011;17936;52.446;10.840;2023-06-26T03:08:12;7.38;;;5.38;;
31308;SDS011;17936;52.446;10.840;2023-06-26T03:10:37;10.20;;;5.00;;
31308;SDS011;17936;52.446;10.840;2023-06-26T03:13:03;6.35;;;4.68;;
31308;SDS011;17936;52.446;10.840;2023-06-26T03:15:28;8.73;;;5.15;;
31308;SDS011;17936;52.446;10.840;2023-06-26T03:17:54;7.68;;;5.70;;
31308;SDS011;17936;52.446;10.840;2023-06-26T03:20:19;8.07;;;5.28;;
31308;SDS011;17936;52.446;10.840;2023-06-26T03:22:45;13.13;;;5.22;;
31308;SDS011;17936;52.446;10.840;2023-06-26T03:25:10;9.45;;;5.30;;
31308;SDS011;17936;52.446;10.840;2023-06-26T03:27:36;11.45;;;5.80;;
31308;SDS011;17936;52.446;10.840;2023-06-26T03:30:01;7.28;;;5.30;;
31308;SDS011;17936;52.446;10.840;2023-06-26T03:32:27;9.25;;;5.40;;
31308;SDS011;17936;52.446;10.840;2023-06-26T03:34:52;9.00;;;5.32;;
31308;SDS011;17936;52.446;10.840;2023-06-26T03:37:18;8.70;;;5.18;;
31308;SDS011;17936;52.446;10.840;2023-06-26T03:39:43;8.90;;;5.53;;
31308;SDS011;17936;52.446;10.840;2023-06-26T03:42:09;10.52;;;6.15;;
31308;SDS011;17936;52.446;10.840;2023-06-26T03:44:35;8.70;;;5.15;;
31308;SDS011;17936;52.446;10.840;2023-06-26T03:47:00;9.50;;;5.60;;
31308;SDS011;17936;52.446;10.840;2023-06-26T03:49:26;8.27;;;5.50;;
31308;SDS011;17936;52.446;10.840;2023-06-26T03:51:51;7.65;;;5.63;;
31308;SDS011;17936;52.446;10.840;2023-06-26T03:54:17;7.28;;;5.93;;
31308;SDS011;17936;52.446;10.840;2023-06-26T03:56:42;8.13;;;5.93;;
31308;SDS011;17936;52.446;10.840;2023-06-26T03:59:08;8.25;;;5.15;;
31308;SDS011;17936;52.446;10.840;2023-06-26T04:01:35;8.95;;;5.13;;
31308;SDS011;17936;52.446;10.840;2023-06-26T04:04:02;11.65;;;5.60;;
31308;SDS011;17936;52.446;10.840;2023-06-26T04:06:28;12.07;;;5.93;;
31308;SDS011;17936;52.446;10.840;2023-06-26T04:08:53;7.07;;;5.30;;
31308;SDS011;17936;52.446;10.840;2023-06-26T04:11:18;6.57;;;4.90;;
31308;SDS011;17936;52.446;10.840;2023-06-26T04:13:44;7.47;;;4.78;;
31308;SDS011;17936;52.446;10.840;2023-06-26T04:16:09;9.35;;;5.00;;
31308;SDS011;17936;52.446;10.840;2023-06-26T04:18:36;6.97;;;5.20;;
31308;SDS011;17936;52.446;10.840;2023-06-26T04:21:09;6.97;;;5.07;;
31308;SDS011;17936;52.446;10.840;2023-06-26T04:23:36;6.00;;;4.57;;
31308;SDS011;17936;52.446;10.840;2023-06-26T04:26:03;7.05;;;5.03;;
31308;SDS011;17936;52.446;10.840;2023-06-26T04:28:30;9.20;;;4.72;;
31308;SDS011;17936;52.446;10.840;2023-06-26T04:30:56;8.55;;;4.78;;
31308;SDS011;17936;52.446;10.840;2023-06-26T04:33:22;7.78;;;4.97;;
31308;SDS011;17936;52.446;10.840;2023-06-26T04:35:48;7.28;;;5.18;;
31308;SDS011;17936;52.446;10.840;2023-06-26T04:38:17;8.60;;;5.07;;
31308;SDS011;17936;52.446;10.840;2023-06-26T04:40:43;6.93;;;4.68;;
31308;SDS011;17936;52.446;10.840;2023-06-26T04:43:08;9.57;;;5.15;;
31308;SDS011;17936;52.446;10.840;2023-06-26T04:45:34;8.07;;;4.57;;
31308;SDS011;17936;52.446;10.840;2023-06-26T04:48:00;8.43;;;4.85;;
31308;SDS011;17936;52.446;10.840;2023-06-26T04:50:25;6.75;;;4.50;;
31308;SDS011;17936;52.446;10.840;2023-06-26T04:52:53;6.30;;;4.45;;
31308;SDS011;17936;52.446;10.840;2023-06-26T04:55:18;10.60;;;4.28;;
31308;SDS011;17936;52.446;10.840;2023-06-26T04:57:44;9.93;;;4.72;;
31308;SDS011;17936;52.446;10.840;2023-06-26T05:00:09;8.38;;;4.72;;
31308;SDS011;17936;52.446;10.840;2023-06-26T05:02:36;6.03;;;4.63;;
31308;SDS011;17936;52.446;10.840;2023-06-26T05:05:01;6.35;;;4.25;;
31308;SDS011;17936;52.446;10.840;2023-06-26T05:07:27;6.00;;;3.97;;
31308;SDS011;17936;52.446;10.840;2023-06-26T05:09:52;6.07;;;4.38;;
31308;SDS011;17936;52.446;10.840;2023-06-26T05:12:18;12.75;;;4.10;;
31308;SDS011;17936;52.446;10.840;2023-06-26T05:14:43;7.18;;;4.32;;
31308;SDS011;17936;52.446;10.840;2023-06-26T05:17:10;5.97;;;4.15;;
31308;SDS011;17936;52.446;10.840;2023-06-26T05:19:36;8.13;;;4.00;;
31308;SDS011;17936;52.446;10.840;2023-06-26T05:22:01;10.10;;;4.38;;
31308;SDS011;17936;52.446;10.840;2023-06-26T05:24:32;11.90;;;3.95;;
31308;SDS011;17936;52.446;10.840;2023-06-26T05:27:02;7.32;;;4.03;;
31308;SDS011;17936;52.446;10.840;2023-06-26T05:29:28;7.22;;;3.83;;
31308;SDS011;17936;52.446;10.840;2023-06-26T05:31:55;12.23;;;4.63;;
31308;SDS011;17936;52.446;10.840;2023-06-26T05:34:25;7.03;;;4.00;;
31308;SDS011;17936;52.446;10.840;2023-06-26T05:36:54;4.93;;;3.42;;
31308;SDS011;17936;52.446;10.840;2023-06-26T05:39:22;5.38;;;4.00;;
31308;SDS011;17936;52.446;10.840;2023-06-26T05:41:48;10.85;;;3.83;;
31308;SDS011;17936;52.446;10.840;2023-06-26T05:44:14;6.78;;;4.10;;
31308;SDS011;17936;52.446;10.840;2023-06-26T05:46:39;7.68;;;3.85;;
31308;SDS011;17936;52.446;10.840;2023-06-26T05:49:05;9.80;;;3.97;;
31308;SDS011;17936;52.446;10.840;2023-06-26T05:51:30;8.45;;;3.38;;
31308;SDS011;17936;52.446;10.840;2023-06-26T05:53:56;6.93;;;3.63;;
31308;SDS011;17936;52.446;10.840;2023-06-26T05:56:22;6.60;;;3.85;;
31308;SDS011;17936;52.446;10.840;2023-06-26T05:58:48;7.05;;;3.97;;
31308;SDS011;17936;52.446;10.840;2023-06-26T06:01:14;8.50;;;3.80;;
31308;SDS011;17936;52.446;10.840;2023-06-26T06:03:40;7.35;;;3.80;;
31308;SDS011;17936;52.446;10.840;2023-06-26T06:06:05;5.53;;;3.95;;
31308;SDS011;17936;52.446;10.840;2023-06-26T06:08:31;11.50;;;3.83;;
31308;SDS011;17936;52.446;10.840;2023-06-26T06:10:57;13.07;;;3.67;;
31308;SDS011;17936;52.446;10.840;2023-06-26T06:13:22;7.65;;;3.50;;
31308;SDS011;17936;52.446;10.840;2023-06-26T06:15:48;6.00;;;3.80;;
31308;SDS011;17936;52.446;10.840;2023-06-26T06:18:14;7.65;;;3.60;;
31308;SDS011;17936;52.446;10.840;2023-06-26T06:20:40;6.47;;;3.72;;
31308;SDS011;17936;52.446;10.840;2023-06-26T06:23:05;5.72;;;3.35;;
31308;SDS011;17936;52.446;10.840;2023-06-26T06:25:31;6.60;;;3.17;;
31308;SDS011;17936;52.446;10.840;2023-06-26T06:27:56;5.50;;;3.60;;
31308;SDS011;17936;52.446;10.840;2023-06-26T06:30:22;6.72;;;3.72;;
31308;SDS011;17936;52.446;10.840;2023-06-26T06:32:47;7.10;;;3.63;;
31308;SDS011;17936;52.446;10.840;2023-06-26T06:35:16;5.45;;;3.40;;
31308;SDS011;17936;52.446;10.840;2023-06-26T06:37:44;7.15;;;4.00;;
31308;SDS011;17936;52.446;10.840;2023-06-26T06:40:10;5.60;;;3.42;;
31308;SDS011;17936;52.446;10.840;2023-06-26T06:42:36;8.63;;;3.72;;
31308;SDS011;17936;52.446;10.840;2023-06-26T06:45:02;4.47;;;3.30;;
31308;SDS011;17936;52.446;10.840;2023-06-26T06:47:28;4.78;;;3.45;;
31308;SDS011;17936;52.446;10.840;2023-06-26T06:49:54;4.43;;;3.53;;
31308;SDS011;17936;52.446;10.840;2023-06-26T06:52:19;6.25;;;3.53;;
31308;SDS011;17936;52.446;10.840;2023-06-26T06:54:54;5.18;;;3.55;;
31308;SDS011;17936;52.446;10.840;2023-06-26T06:57:21;5.22;;;3.70;;
31308;SDS011;17936;52.446;10.840;2023-06-26T06:59:47;5.65;;;3.53;;
31308;SDS011;17936;52.446;10.840;2023-06-26T07:02:13;8.70;;;3.78;;
31308;SDS011;17936;52.446;10.840;2023-06-26T07:04:40;5.32;;;3.67;;
31308;SDS011;17936;52.446;10.840;2023-06-26T07:07:05;6.68;;;3.45;;
31308;SDS011;17936;52.446;10.840;2023-06-26T07:09:31;4.85;;;3.78;;
31308;SDS011;17936;52.446;10.840;2023-06-26T07:11:56;7.82;;;3.83;;
31308;SDS011;17936;52.446;10.840;2023-06-26T07:14:22;11.60;;;3.92;;
31308;SDS011;17936;52.446;10.840;2023-06-26T07:16:48;6.50;;;3.55;;
31308;SDS011;17936;52.446;10.840;2023-06-26T07:19:14;5.07;;;3.75;;
31308;SDS011;17936;52.446;10.840;2023-06-26T07:21:39;6.57;;;3.92;;
31308;SDS011;17936;52.446;10.840;2023-06-26T07:24:06;6.40;;;4.07;;
31308;SDS011;17936;52.446;10.840;2023-06-26T07:26:32;8.88;;;4.25;;
31308;SDS011;17936;52.446;10.840;2023-06-26T07:28:58;6.15;;;3.97;;
31308;SDS011;17936;52.446;10.840;2023-06-26T07:31:23;4.97;;;3.70;;
31308;SDS011;17936;52.446;10.840;2023-06-26T07:33:49;5.57;;;3.60;;
31308;SDS011;17936;52.446;10.840;2023-06-26T07:36:14;4.38;;;3.40;;
31308;SDS011;17936;52.446;10.840;2023-06-26T07:38:40;4.70;;;3.45;;
31308;SDS011;17936;52.446;10.840;2023-06-26T07:41:05;6.22;;;4.00;;
31308;SDS011;17936;52.446;10.840;2023-06-26T07:43:31;8.32;;;3.92;;
31308;SDS011;17936;52.446;10.840;2023-06-26T07:45:56;6.50;;;4.15;;
31308;SDS011;17936;52.446;10.840;2023-06-26T07:48:25;7.00;;;4.07;;
31308;SDS011;17936;52.446;10.840;2023-06-26T07:50:50;7.40;;;4.43;;
31308;SDS011;17936;52.446;10.840;2023-06-26T07:53:16;6.72;;;4.10;;
31308;SDS011;17936;52.446;10.840;2023-06-26T07:55:42;11.30;;;3.92;;
31308;SDS011;17936;52.446;10.840;2023-06-26T07:58:08;5.25;;;3.72;;
31308;SDS011;17936;52.446;10.840;2023-06-26T08:00:34;6.53;;;3.53;;
31308;SDS011;17936;52.446;10.840;2023-06-26T08:03:00;5.63;;;4.05;;
31308;SDS011;17936;52.446;10.840;2023-06-26T08:05:25;8.20;;;3.75;;
31308;SDS011;17936;52.446;10.840;2023-06-26T08:07:51;5.03;;;3.80;;
31308;SDS011;17936;52.446;10.840;2023-06-26T08:10:16;8.15;;;4.22;;
31308;SDS011;17936;52.446;10.840;2023-06-26T08:12:42;4.53;;;3.67;;
31308;SDS011;17936;52.446;10.840;2023-06-26T08:15:10;7.07;;;4.07;;
31308;SDS011;17936;52.446;10.840;2023-06-26T08:17:36;8.88;;;4.20;;
31308;SDS011;17936;52.446;10.840;2023-06-26T08:20:02;5.82;;;3.85;;
31308;SDS011;17936;52.446;10.840;2023-06-26T08:22:28;5.40;;;3.80;;
31308;SDS011;17936;52.446;10.840;2023-06-26T08:24:54;7.72;;;4.65;;
31308;SDS011;17936;52.446;10.840;2023-06-26T08:27:19;6.95;;;4.13;;
31308;SDS011;17936;52.446;10.840;2023-06-26T08:29:45;5.75;;;4.07;;
31308;SDS011;17936;52.446;10.840;2023-06-26T08:32:10;5.00;;;3.97;;
31308;SDS011;17936;52.446;10.840;2023-06-26T08:34:36;11.48;;;4.03;;
31308;SDS011;17936;52.446;10.840;2023-06-26T08:37:01;9.27;;;4.18;;
31308;SDS011;17936;52.446;10.840;2023-06-26T08:39:27;4.70;;;3.95;;
31308;SDS011;17936;52.446;10.840;2023-06-26T08:41:53;9.77;;;4.05;;
31308;SDS011;17936;52.446;10.840;2023-06-26T08:44:18;10.00;;;4.40;;
31308;SDS011;17936;52.446;10.840;2023-06-26T08:46:48;6.10;;;4.60;;
31308;SDS011;17936;52.446;10.840;2023-06-26T08:49:14;8.48;;;3.60;;
31308;SDS011;17936;52.446;10.840;2023-06-26T08:51:46;13.03;;;4.40;;
31308;SDS011;17936;52.446;10.840;2023-06-26T08:54:16;6.50;;;4.10;;
31308;SDS011;17936;52.446;10.840;2023-06-26T08:56:46;5.15;;;4.07;;
31308;SDS011;17936;52.446;10.840;2023-06-26T08:59:14;5.05;;;3.65;;
31308;SDS011;17936;52.446;10.840;2023-06-26T09:01:41;5.82;;;4.10;;
31308;SDS011;17936;52.446;10.840;2023-06-26T09:04:07;5.68;;;4.18;;
31308;SDS011;17936;52.446;10.840;2023-06-26T09:06:33;7.05;;;4.40;;
31308;SDS011;17936;52.446;10.840;2023-06-26T09:08:58;6.85;;;4.40;;
31308;SDS011;17936;52.446;10.840;2023-06-26T09:11:24;5.68;;;4.18;;
31308;SDS011;17936;52.446;10.840;2023-06-26T09:13:49;7.60;;;3.97;;
31308;SDS011;17936;52.446;10.840;2023-06-26T09:16:16;5.68;;;4.00;;
31308;SDS011;17936;52.446;10.840;2023-06-26T09:18:42;8.57;;;4.25;;
31308;SDS011;17936;52.446;10.840;2023-06-26T09:21:12;7.50;;;4.45;;
31308;SDS011;17936;52.446;10.840;2023-06-26T09:23:39;5.15;;;4.03;;
31308;SDS011;17936;52.446;10.840;2023-06-26T09:26:06;4.85;;;3.67;;
31308;SDS011;17936;52.446;10.840;2023-06-26T09:28:32;6.55;;;4.10;;
31308;SDS011;17936;52.446;10.840;2023-06-26T09:31:01;4.85;;;4.10;;
31308;SDS011;17936;52.446;10.840;2023-06-26T09:33:32;9.07;;;4.20;;
31308;SDS011;17936;52.446;10.840;2023-06-26T09:35:59;6.53;;;4.38;;
31308;SDS011;17936;52.446;10.840;2023-06-26T09:38:25;6.15;;;4.20;;
31308;SDS011;17936;52.446;10.840;2023-06-26T09:40:51;4.75;;;3.88;;
31308;SDS011;17936;52.446;10.840;2023-06-26T09:43:17;5.45;;;4.30;;
31308;SDS011;17936;52.446;10.840;2023-06-26T09:45:44;8.82;;;4.75;;
31308;SDS011;17936;52.446;10.840;2023-06-26T09:48:09;7.18;;;4.68;;
31308;SDS011;17936;52.446;10.840;2023-06-26T09:50:36;6.40;;;4.50;;
31308;SDS011;17936;52.446;10.840;2023-06-26T09:53:09;5.55;;;4.18;;
31308;SDS011;17936;52.446;10.840;2023-06-26T09:55:36;10.93;;;4.38;;
31308;SDS011;17936;52.446;10.840;2023-06-26T09:58:03;5.53;;;3.95;;
31308;SDS011;17936;52.446;10.840;2023-06-26T10:00:32;4.63;;;3.60;;
31308;SDS011;17936;52.446;10.840;2023-06-26T10:03:01;6.75;;;4.18;;
31308;SDS011;17936;52.446;10.840;2023-06-26T10:05:27;5.70;;;4.00;;
31308;SDS011;17936;52.446;10.840;2023-06-26T10:07:56;9.55;;;4.30;;
31308;SDS011;17936;52.446;10.840;2023-06-26T10:10:23;5.15;;;4.05;;
31308;SDS011;17936;52.446;10.840;2023-06-26T10:12:51;8.02;;;4.22;;
31308;SDS011;17936;52.446;10.840;2023-06-26T10:15:21;4.70;;;3.67;;
31308;SDS011;17936;52.446;10.840;2023-06-26T10:17:48;7.68;;;4.13;;
31308;SDS011;17936;52.446;10.840;2023-06-26T10:20:15;8.80;;;4.72;;
31308;SDS011;17936;52.446;10.840;2023-06-26T10:22:43;4.97;;;4.18;;
31308;SDS011;17936;52.446;10.840;2023-06-26T10:25:10;6.07;;;4.07;;
31308;SDS011;17936;52.446;10.840;2023-06-26T10:27:42;6.50;;;4.07;;
31308;SDS011;17936;52.446;10.840;2023-06-26T10:30:12;7.65;;;4.30;;
31308;SDS011;17936;52.446;10.840;2023-06-26T10:32:41;7.57;;;4.57;;
31308;SDS011;17936;52.446;10.840;2023-06-26T10:35:07;7.88;;;4.28;;
31308;SDS011;17936;52.446;10.840;2023-06-26T10:37:45;12.30;;;4.80;;
31308;SDS011;17936;52.446;10.840;2023-06-26T10:40:18;5.60;;;4.43;;
31308;SDS011;17936;52.446;10.840;2023-06-26T10:43:04;6.07;;;4.57;;
31308;SDS011;17936;52.446;10.840;2023-06-26T10:45:33;7.70;;;5.00;;
31308;SDS011;17936;52.446;10.840;2023-06-26T10:48:00;7.60;;;4.68;;
31308;SDS011;17936;52.446;10.840;2023-06-26T10:50:26;10.00;;;5.05;;
31308;SDS011;17936;52.446;10.840;2023-06-26T10:53:14;9.88;;;4.93;;
31308;SDS011;17936;52.446;10.840;2023-06-26T10:56:03;7.03;;;4.80;;
31308;SDS011;17936;52.446;10.840;2023-06-26T10:58:30;7.30;;;5.00;;
31308;SDS011;17936;52.446;10.840;2023-06-26T11:01:40;9.60;;;5.50;;
31308;SDS011;17936;52.446;10.840;2023-06-26T11:03:48;6.38;;;4.93;;
31308;SDS011;17936;52.446;10.840;2023-06-26T11:06:35;10.88;;;5.68;;
31308;SDS011;17936;52.446;10.840;2023-06-26T11:14:20;12.82;;;5.82;;
31308;SDS011;17936;52.446;10.840;2023-06-26T11:16:47;9.73;;;5.75;;
31308;SDS011;17936;52.446;10.840;2023-06-26T11:19:14;12.50;;;6.07;;
31308;SDS011;17936;52.446;10.840;2023-06-26T11:21:41;9.68;;;5.85;;
31308;SDS011;17936;52.446;10.840;2023-06-26T11:24:07;8.85;;;6.15;;
31308;SDS011;17936;52.446;10.840;2023-06-26T11:26:40;11.52;;;6.38;;
31308;SDS011;17936;52.446;10.840;2023-06-26T11:29:09;14.18;;;6.55;;
31308;SDS011;17936;52.446;10.840;2023-06-26T11:31:36;8.55;;;6.32;;
31308;SDS011;17936;52.446;10.840;2023-06-26T11:34:07;12.07;;;6.88;;
31308;SDS011;17936;52.446;10.840;2023-06-26T11:36:38;10.50;;;6.65;;
31308;SDS011;17936;52.446;10.840;2023-06-26T11:39:05;13.13;;;7.10;;
31308;SDS011;17936;52.446;10.840;2023-06-26T11:41:32;9.13;;;6.68;;
31308;SDS011;17936;52.446;10.840;2023-06-26T11:44:02;10.30;;;6.10;;
31308;SDS011;17936;52.446;10.840;2023-06-26T11:46:29;11.35;;;7.10;;
31308;SDS011;17936;52.446;10.840;2023-06-26T11:48:55;14.50;;;7.65;;
31308;SDS011;17936;52.446;10.840;2023-06-26T11:51:21;11.80;;;6.78;;
31308;SDS011;17936;52.446;10.840;2023-06-26T11:53:47;14.18;;;7.07;;
31308;SDS011;17936;52.446;10.840;2023-06-26T11:56:13;12.77;;;8.60;;
31308;SDS011;17936;52.446;10.840;2023-06-26T12:01:38;13.98;;;9.18;;
31308;SDS011;17936;52.446;10.840;2023-06-26T12:04:06;10.80;;;8.50;;
31308;SDS011;17936;52.446;10.840;2023-06-26T12:06:36;14.73;;;9.15;;
31308;SDS011;17936;52.446;10.840;2023-06-26T12:09:09;8.70;;;7.10;;
31308;SDS011;17936;52.446;10.840;2023-06-26T12:11:42;9.63;;;5.95;;
31308;SDS011;17936;52.446;10.840;2023-06-26T12:14:09;7.78;;;5.15;;
31308;SDS011;17936;52.446;10.840;2023-06-26T12:16:36;9.98;;;4.90;;
31308;SDS011;17936;52.446;10.840;2023-06-26T12:19:05;12.43;;;5.88;;
31308;SDS011;17936;52.446;10.840;2023-06-26T12:21:43;9.13;;;4.80;;
31308;SDS011;17936;52.446;10.840;2023-06-26T12:24:17;9.55;;;4.85;;
31308;SDS011;17936;52.446;10.840;2023-06-26T12:26:49;6.20;;;4.85;;
31308;SDS011;17936;52.446;10.840;2023-06-26T12:29:18;10.07;;;4.55;;
31308;SDS011;17936;52.446;10.840;2023-06-26T12:31:48;7.10;;;4.88;;
31308;SDS011;17936;52.446;10.840;2023-06-26T12:34:18;6.65;;;4.53;;
31308;SDS011;17936;52.446;10.840;2023-06-26T12:36:46;5.68;;;4.53;;
31308;SDS011;17936;52.446;10.840;2023-06-26T12:39:14;8.73;;;4.25;;
31308;SDS011;17936;52.446;10.840;2023-06-26T12:41:47;10.45;;;5.05;;
31308;SDS011;17936;52.446;10.840;2023-06-26T12:44:20;8.25;;;4.80;;
31308;SDS011;17936;52.446;10.840;2023-06-26T12:46:57;8.73;;;5.20;;
31308;SDS011;17936;52.446;10.840;2023-06-26T12:49:33;8.05;;;5.40;;
31308;SDS011;17936;52.446;10.840;2023-06-26T12:52:06;8.13;;;4.90;;
31308;SDS011;17936;52.446;10.840;2023-06-26T12:54:42;7.78;;;5.10;;
31308;SDS011;17936;52.446;10.840;2023-06-26T12:57:08;12.77;;;5.90;;
31308;SDS011;17936;52.446;10.840;2023-06-26T12:59:35;12.48;;;5.75;;
31308;SDS011;17936;52.446;10.840;2023-06-26T13:02:02;9.65;;;5.25;;
31308;SDS011;17936;52.446;10.840;2023-06-26T13:04:28;12.13;;;5.53;;
31308;SDS011;17936;52.446;10.840;2023-06-26T13:06:54;9.10;;;5.35;;
31308;SDS011;17936;52.446;10.840;2023-06-26T13:09:20;12.60;;;5.78;;
31308;SDS011;17936;52.446;10.840;2023-06-26T13:11:46;14.38;;;6.03;;
31308;SDS011;17936;52.446;10.840;2023-06-26T13:14:12;10.88;;;5.82;;
31308;SDS011;17936;52.446;10.840;2023-06-26T13:16:37;12.23;;;5.90;;
31308;SDS011;17936;52.446;10.840;2023-06-26T13:19:03;9.95;;;5.57;;
31308;SDS011;17936;52.446;10.840;2023-06-26T13:21:29;7.63;;;5.30;;
31308;SDS011;17936;52.446;10.840;2023-06-26T13:23:55;11.40;;;5.53;;
31308;SDS011;17936;52.446;10.840;2023-06-26T13:26:21;10.43;;;5.70;;
31308;SDS011;17936;52.446;10.840;2023-06-26T13:28:48;11.63;;;5.38;;
31308;SDS011;17936;52.446;10.840;2023-06-26T13:31:14;9.38;;;4.82;;
31308;SDS011;17936;52.446;10.840;2023-06-26T13:33:40;11.85;;;4.82;;
31308;SDS011;17936;52.446;10.840;2023-06-26T13:36:05;15.85;;;5.18;;
31308;SDS011;17936;52.446;10.840;2023-06-26T13:38:32;12.13;;;5.40;;
31308;SDS011;17936;52.446;10.840;2023-06-26T13:40:59;8.05;;;4.57;;
31308;SDS011;17936;52.446;10.840;2023-06-26T13:43:28;10.85;;;4.78;;
31308;SDS011;17936;52.446;10.840;2023-06-26T13:45:54;10.63;;;4.25;;
31308;SDS011;17936;52.446;10.840;2023-06-26T13:48:20;7.05;;;4.35;;
31308;SDS011;17936;52.446;10.840;2023-06-26T13:50:46;8.65;;;3.95;;
31308;SDS011;17936;52.446;10.840;2023-06-26T13:53:12;9.00;;;4.10;;
31308;SDS011;17936;52.446;10.840;2023-06-26T13:55:39;9.15;;;3.78;;
31308;SDS011;17936;52.446;10.840;2023-06-26T13:58:05;6.93;;;3.83;;
31308;SDS011;17936;52.446;10.840;2023-06-26T14:00:32;6.53;;;3.80;;
31308;SDS011;17936;52.446;10.840;2023-06-26T14:03:02;6.43;;;3.78;;
31308;SDS011;17936;52.446;10.840;2023-06-26T14:05:34;8.65;;;3.53;;
31308;SDS011;17936;52.446;10.840;2023-06-26T14:08:05;6.63;;;3.53;;
31308;SDS011;17936;52.446;10.840;2023-06-26T14:10:32;10.00;;;4.00;;
31308;SDS011;17936;52.446;10.840;2023-06-26T14:13:01;8.02;;;3.50;;
31308;SDS011;17936;52.446;10.840;2023-06-26T14:15:28;7.80;;;3.67;;
31308;SDS011;17936;52.446;10.840;2023-06-26T14:17:53;5.90;;;3.25;;
31308;SDS011;17936;52.446;10.840;2023-06-26T14:20:20;4.15;;;2.97;;
31308;SDS011;17936;52.446;10.840;2023-06-26T14:22:47;7.70;;;2.95;;
31308;SDS011;17936;52.446;10.840;2023-06-26T14:25:13;7.45;;;3.03;;
31308;SDS011;17936;52.446;10.840;2023-06-26T14:27:39;9.27;;;3.10;;
31308;SDS011;17936;52.446;10.840;2023-06-26T14:30:06;7.13;;;3.45;;
31308;SDS011;17936;52.446;10.840;2023-06-26T14:32:35;7.45;;;2.97;;
31308;SDS011;17936;52.446;10.840;2023-06-26T14:35:00;5.20;;;2.92;;
31308;SDS011;17936;52.446;10.840;2023-06-26T14:37:28;6.85;;;2.72;;
31308;SDS011;17936;52.446;10.840;2023-06-26T14:39:55;7.22;;;2.40;;